Time;durP1;ratioP1;P1;durP2;ratioP2;P2;SDS_P1;SDS_P2;PMS_P1;PMS_P2;Temp;Humidity;BMP_temperature;BMP_pressure;BME280_temperature;BME280_humidity;BME280_pressure;Samples;Min_cycle;Max_cycle;Signal;HPM_P1;HPM_P2
2022/03/21 00:02:01;;;;;;;22.70;19.00;;;;;;;3.40;82.39;97084.69;5037871;28;24633;-76
2022/03/21 00:04:28;;;;;;;19.25;17.30;;;;;;;3.12;84.04;97091.91;5038293;28;24478;-77
2022/03/21 00:06:55;;;;;;;19.90;17.73;;;;;;;3.02;85.21;97092.88;5037318;28;24463;-77
2022/03/21 00:09:22;;;;;;;23.20;17.75;;;;;;;3.03;85.27;97089.44;5037192;28;25255;-77
2022/03/21 00:11:50;;;;;;;21.15;17.27;;;;;;;3.06;85.54;97089.41;5037926;28;24536;-77
2022/03/21 00:14:19;;;;;;;22.88;18.33;;;;;;;3.06;84.54;97088.56;5038012;28;24440;-76
2022/03/21 00:16:47;;;;;;;20.70;18.33;;;;;;;3.00;84.33;97091.19;5036431;28;24509;-77
2022/03/21 00:19:15;;;;;;;21.95;19.65;;;;;;;3.03;84.43;97091.16;5036573;28;24968;-77
2022/03/21 00:21:43;;;;;;;20.83;18.15;;;;;;;2.98;85.17;97098.88;5037002;28;24782;-77
2022/03/21 00:24:10;;;;;;;23.48;18.10;;;;;;;3.02;85.63;97092.88;5037349;28;24427;-76
2022/03/21 00:26:36;;;;;;;20.60;18.40;;;;;;;3.05;85.98;97099.66;5037032;28;24454;-77
2022/03/21 00:29:03;;;;;;;22.17;18.17;;;;;;;3.03;86.38;97098.81;5037620;28;24968;-77
2022/03/21 00:31:29;;;;;;;24.90;19.92;;;;;;;2.97;84.13;97102.31;5037301;28;24428;-77
2022/03/21 00:33:56;;;;;;;23.60;18.92;;;;;;;3.03;83.74;97103.94;5037734;28;24438;-76
2022/03/21 00:36:24;;;;;;;22.95;18.75;;;;;;;2.84;86.35;97109.28;5037537;28;24431;-77
2022/03/21 00:38:50;;;;;;;22.20;18.40;;;;;;;2.77;87.69;97109.34;5036784;28;24503;-76
2022/03/21 00:41:17;;;;;;;21.92;18.67;;;;;;;2.60;88.81;97105.28;5037029;28;24798;-77
2022/03/21 00:43:43;;;;;;;22.38;18.95;;;;;;;2.52;90.26;97104.50;5036980;28;24445;-76
2022/03/21 00:46:11;;;;;;;20.67;18.35;;;;;;;2.53;89.67;97110.47;5036447;28;24448;-76
2022/03/21 00:48:38;;;;;;;22.23;17.80;;;;;;;2.67;89.78;97109.47;5036944;28;24432;-77
2022/03/21 00:51:04;;;;;;;20.27;17.92;;;;;;;2.75;89.46;97103.44;5036958;28;24431;-76
2022/03/21 00:53:32;;;;;;;19.77;16.70;;;;;;;2.82;89.36;97099.94;5036917;28;24996;-77
2022/03/21 00:55:59;;;;;;;17.80;15.90;;;;;;;2.86;89.44;97101.59;5036974;28;24511;-76
2022/03/21 00:58:25;;;;;;;18.65;15.80;;;;;;;2.87;89.65;97099.00;5037363;28;24439;-76
2022/03/21 01:00:52;;;;;;;19.50;15.20;;;;;;;2.72;91.24;97104.28;5036062;28;24427;-77
2022/03/21 01:03:18;;;;;;;17.88;15.00;;;;;;;2.61;92.17;97101.84;5037064;28;24797;-77
2022/03/21 01:05:45;;;;;;;19.73;16.63;;;;;;;2.34;94.84;97102.13;5037038;28;24498;-77
2022/03/21 01:08:11;;;;;;;21.00;16.50;;;;;;;2.02;98.27;97105.78;5037135;28;24428;-76
2022/03/21 01:10:39;;;;;;;17.97;16.03;;;;;;;2.10;97.34;97101.44;5036835;28;24935;-77
2022/03/21 01:13:06;;;;;;;18.52;15.68;;;;;;;2.22;97.41;97103.06;5036518;28;24427;-77
2022/03/21 01:15:32;;;;;;;17.52;15.65;;;;;;;2.37;96.31;97099.50;5036732;28;24794;-77
2022/03/21 01:17:59;;;;;;;20.00;14.75;;;;;;;2.47;96.40;97111.34;5036491;28;24431;-77
2022/03/21 01:20:26;;;;;;;18.23;14.70;;;;;;;2.58;95.26;97106.97;5036020;28;24438;-76
2022/03/21 01:22:53;;;;;;;17.85;15.40;;;;;;;2.64;94.71;97099.25;5035982;28;24439;-77
2022/03/21 01:25:20;;;;;;;16.98;15.18;;;;;;;2.59;94.12;97110.38;5035991;28;24424;-77
2022/03/21 01:27:48;;;;;;;16.73;14.60;;;;;;;2.62;95.25;97108.66;5035982;28;24432;-76
2022/03/21 01:30:16;;;;;;;19.40;15.18;;;;;;;2.69;93.27;97104.31;5036568;28;24428;-77
2022/03/21 01:32:43;;;;;;;17.70;15.32;;;;;;;2.63;93.70;97099.25;5036130;28;24534;-76
2022/03/21 01:35:11;;;;;;;17.48;14.77;;;;;;;2.60;93.27;97110.38;5036275;28;24424;-76
2022/03/21 01:37:38;;;;;;;19.63;15.40;;;;;;;2.49;92.90;97114.75;5036417;28;24490;-77
2022/03/21 01:40:06;;;;;;;19.15;15.23;;;;;;;2.42;93.57;97108.84;5035894;28;24427;-77
2022/03/21 01:42:32;;;;;;;19.33;15.57;;;;;;;2.35;91.56;97106.38;5035170;28;24512;-76
2022/03/21 01:45:00;;;;;;;17.30;15.30;;;;;;;2.30;91.38;97110.66;5034912;28;24431;-76
2022/03/21 01:47:27;;;;;;;19.48;15.77;;;;;;;2.21;93.19;97103.06;5034693;28;24447;-76
2022/03/21 01:49:53;;;;;;;17.48;15.57;;;;;;;2.15;94.88;97107.38;5034671;28;24482;-76
2022/03/21 01:52:20;;;;;;;18.98;15.68;;;;;;;2.23;95.03;97109.03;5034862;28;24439;-76
2022/03/21 01:57:31;;;;;;;26.40;18.63;;;;;;;1.89;90.73;97114.38;5035902;28;24446;-76
2022/03/21 02:00:00;;;;;;;26.07;16.70;;;;;;;1.71;93.38;97112.84;5035662;28;24432;-76
2022/03/21 02:02:27;;;;;;;20.17;16.80;;;;;;;1.68;95.06;97108.59;5036005;28;24463;-77
2022/03/21 02:04:53;;;;;;;20.15;16.73;;;;;;;1.55;98.01;97111.22;5035173;28;24432;-76
2022/03/21 02:07:20;;;;;;;23.40;16.90;;;;;;;1.44;100.00;97103.59;5035166;28;24455;-77
2022/03/21 02:09:47;;;;;;;19.85;16.58;;;;;;;1.52;100.00;97109.53;5035504;28;24428;-76
2022/03/21 02:12:14;;;;;;;19.05;17.02;;;;;;;1.55;100.00;97106.09;5035699;28;25000;-76
2022/03/21 02:14:41;;;;;;;19.45;17.17;;;;;;;1.74;100.00;97111.94;5036376;28;24432;-77
2022/03/21 02:17:10;;;;;;;18.20;16.30;;;;;;;1.86;99.57;97111.88;5036666;28;25167;-76
2022/03/21 02:19:38;;;;;;;21.25;17.58;;;;;;;1.42;100.00;97108.72;5029041;28;24439;-77
2022/03/21 02:22:24;;;;;;;22.55;17.42;;;;;;;1.24;100.00;97103.72;5027735;28;24423;-77
2022/03/21 02:25:01;;;;;;;18.92;16.88;;;;;;;1.27;100.00;97101.16;5028885;28;24814;-77
2022/03/21 02:27:31;;;;;;;21.23;17.52;;;;;;;1.19;100.00;97098.66;5036664;28;24454;-77
2022/03/21 02:29:58;;;;;;;23.60;17.00;;;;;;;1.05;100.00;97104.66;5036664;28;24438;-77
2022/03/21 02:32:27;;;;;;;20.52;17.55;;;;;;;0.88;100.00;97099.63;5036220;28;24982;-76
2022/03/21 02:34:55;;;;;;;23.93;18.20;;;;;;;0.76;100.00;97107.31;5028278;28;24480;-76
2022/03/21 02:37:22;;;;;;;18.80;16.80;;;;;;;0.77;100.00;97097.09;5018164;28;24439;-77
2022/03/21 02:39:50;;;;;;;20.52;17.15;;;;;;;0.96;100.00;97102.97;5015219;28;24435;-77
2022/03/21 02:42:18;;;;;;;17.45;15.65;;;;;;;1.20;100.00;97107.16;5014504;28;24428;-76
2022/03/21 02:44:45;;;;;;;17.23;15.48;;;;;;;1.37;100.00;97097.72;5014085;28;24427;-77
2022/03/21 02:47:12;;;;;;;21.30;16.63;;;;;;;1.30;100.00;97105.38;5015912;28;24444;-76
2022/03/21 02:49:38;;;;;;;25.00;17.38;;;;;;;1.26;100.00;97103.69;5013301;28;24440;-76
2022/03/21 02:52:07;;;;;;;19.17;17.23;;;;;;;1.48;98.44;97110.38;5013006;28;24429;-76
2022/03/21 02:54:35;;;;;;;21.00;17.80;;;;;;;1.02;100.00;97108.06;5012660;28;24970;-76
2022/03/21 02:57:02;;;;;;;24.50;18.08;;;;;;;0.96;100.00;97113.19;5012449;28;24836;-76
2022/03/21 02:59:29;;;;;;;22.00;18.70;;;;;;;0.92;100.00;97114.91;5012611;28;24429;-76
2022/03/21 03:01:56;;;;;;;22.50;20.00;;;;;;;0.92;100.00;97124.25;5013273;28;24428;-76
2022/03/21 03:04:23;;;;;;;24.50;20.37;;;;;;;0.99;100.00;97118.28;5012421;28;24991;-75
2022/03/21 03:06:50;;;;;;;26.10;20.55;;;;;;;1.12;100.00;97114.84;5012453;28;24460;-76
2022/03/21 03:09:17;;;;;;;24.67;20.92;;;;;;;1.10;100.00;97123.34;5012967;28;24439;-76
2022/03/21 03:11:44;;;;;;;24.08;19.63;;;;;;;1.29;100.00;97121.56;5012281;28;24436;-77
2022/03/21 03:14:10;;;;;;;21.80;18.60;;;;;;;1.35;100.00;97119.00;5012872;28;24802;-76
2022/03/21 03:16:37;;;;;;;22.85;18.73;;;;;;;1.38;100.00;97111.31;5013211;28;24432;-76
2022/03/21 03:19:06;;;;;;;23.45;18.45;;;;;;;1.43;100.00;97117.25;5012815;28;24491;-76
2022/03/21 03:21:36;;;;;;;19.42;17.23;;;;;;;1.51;100.00;97125.69;5012613;28;24425;-76
2022/03/21 03:24:04;;;;;;;25.47;18.50;;;;;;;1.56;100.00;97129.09;5012580;28;24424;-76
2022/03/21 03:26:30;;;;;;;21.73;16.97;;;;;;;1.58;100.00;97131.63;5012789;28;24453;-76
2022/03/21 03:28:57;;;;;;;18.65;16.27;;;;;;;1.60;100.00;97130.75;5013005;28;24435;-76
2022/03/21 03:31:23;;;;;;;21.50;17.00;;;;;;;1.42;100.00;97136.81;5029615;28;24443;-76
2022/03/21 03:33:50;;;;;;;19.58;17.48;;;;;;;0.95;100.00;97140.41;5013711;28;24444;-77
2022/03/21 03:36:19;;;;;;;22.42;17.25;;;;;;;0.73;100.00;97141.31;5017032;28;24420;-76
2022/03/21 03:38:47;;;;;;;23.67;17.17;;;;;;;0.80;100.00;97143.00;5017925;28;24429;-77
2022/03/21 03:41:15;;;;;;;17.70;15.83;;;;;;;0.98;100.00;97137.00;5017793;28;24471;-76
2022/03/21 03:43:43;;;;;;;17.38;15.57;;;;;;;1.14;100.00;97133.53;5018689;28;24992;-76
2022/03/21 03:46:10;;;;;;;17.17;15.38;;;;;;;1.18;100.00;97137.75;5018260;28;24798;-76
2022/03/21 03:48:36;;;;;;;16.45;14.60;;;;;;;1.27;100.00;97147.09;5017620;28;24432;-76
2022/03/21 03:51:03;;;;;;;18.70;16.70;;;;;;;1.18;100.00;97142.00;5017319;28;24501;-76
2022/03/21 03:53:31;;;;;;;20.42;15.98;;;;;;;1.20;100.00;97137.78;5017624;28;24440;-76
2022/03/21 03:55:58;;;;;;;19.23;16.40;;;;;;;1.31;100.00;97146.22;5017820;28;24439;-76
2022/03/21 03:58:24;;;;;;;17.85;15.95;;;;;;;1.36;100.00;97146.19;5017188;28;24437;-76
2022/03/21 04:00:51;;;;;;;18.15;15.38;;;;;;;1.42;100.00;97147.03;5017338;28;24429;-76
2022/03/21 04:06:02;;;;;;;18.77;15.88;;;;;;;1.13;100.00;97151.41;5017625;28;24482;-76
2022/03/21 04:08:29;;;;;;;18.43;16.03;;;;;;;1.02;100.00;97143.78;5017971;28;24429;-77
2022/03/21 04:10:57;;;;;;;20.67;16.42;;;;;;;0.77;100.00;97152.34;5017950;28;24436;-76
2022/03/21 04:13:23;;;;;;;18.73;16.13;;;;;;;0.67;100.00;97156.63;5018041;28;24432;-77
2022/03/21 04:15:49;;;;;;;21.77;17.40;;;;;;;0.42;100.00;97150.72;5017263;28;24431;-76
2022/03/21 04:18:16;;;;;;;18.30;15.57;;;;;;;0.34;100.00;97152.44;5017252;28;24859;-76
2022/03/21 04:20:43;;;;;;;18.15;16.25;;;;;;;0.33;100.00;97148.16;5016715;28;24424;-76
2022/03/21 04:23:11;;;;;;;23.83;16.65;;;;;;;0.54;100.00;97152.41;5016847;28;24443;-76
2022/03/21 04:25:38;;;;;;;18.90;16.13;;;;;;;0.53;100.00;97150.72;5016972;28;24531;-77
2022/03/21 04:28:09;;;;;;;20.25;16.10;;;;;;;0.60;100.00;97148.16;5017327;28;24456;-76
2022/03/21 04:30:36;;;;;;;18.00;16.10;;;;;;;0.56;100.00;97141.34;5016633;28;24439;-77
2022/03/21 04:33:02;;;;;;;20.63;17.17;;;;;;;0.30;100.00;97154.13;5016173;28;24523;-76
2022/03/21 04:35:29;;;;;;;19.45;17.08;;;;;;;0.07;100.00;97149.00;5017370;28;24439;-76
2022/03/21 04:37:55;;;;;;;19.38;17.27;;;;;;;0.06;100.00;97154.13;5017507;28;24437;-77
2022/03/21 04:40:23;;;;;;;17.08;14.80;;;;;;;0.32;100.00;97151.56;5017694;28;24436;-76
2022/03/21 04:42:49;;;;;;;20.73;15.07;;;;;;;0.49;100.00;97154.97;5017539;28;24468;-76
2022/03/21 04:45:17;;;;;;;18.05;15.77;;;;;;;0.58;100.00;97161.75;5016989;28;24432;-77
2022/03/21 04:47:45;;;;;;;18.50;16.07;;;;;;;0.61;100.00;97162.59;5017249;28;24506;-76
2022/03/21 04:50:12;;;;;;;21.52;17.63;;;;;;;0.46;100.00;97166.00;5017132;28;24471;-76
2022/03/21 04:52:38;;;;;;;20.13;17.17;;;;;;;0.30;100.00;97166.88;5017094;28;24442;-77
2022/03/21 04:55:07;;;;;;;19.43;17.10;;;;;;;0.20;100.00;97175.34;5016763;28;24424;-76
2022/03/21 04:57:34;;;;;;;21.52;16.75;;;;;;;0.24;100.00;97177.06;5017280;28;24442;-76
2022/03/21 05:00:01;;;;;;;19.67;17.53;;;;;;;0.26;100.00;97182.13;5016827;28;24427;-76
2022/03/21 05:02:29;;;;;;;20.27;17.23;;;;;;;0.08;100.00;97188.09;5016206;28;24830;-76
2022/03/21 05:04:55;;;;;;;20.33;17.65;;;;;;;-0.01;100.00;97187.22;5016549;28;24774;-76
2022/03/21 05:07:21;;;;;;;20.97;17.17;;;;;;;0.01;100.00;97192.31;5016591;28;24503;-76
2022/03/21 05:09:48;;;;;;;20.10;16.73;;;;;;;0.18;100.00;97193.16;5016677;28;24439;-77
2022/03/21 05:12:15;;;;;;;20.17;17.10;;;;;;;0.33;100.00;97197.41;5015981;28;24476;-76
2022/03/21 05:14:42;;;;;;;19.10;17.10;;;;;;;0.29;100.00;97194.88;5023156;28;24440;-76
2022/03/21 05:17:10;;;;;;;19.65;17.15;;;;;;;0.38;100.00;97197.44;5019812;28;24467;-76
2022/03/21 05:19:39;;;;;;;19.45;17.02;;;;;;;0.43;100.00;97200.84;5016100;28;24640;-76
2022/03/21 05:22:06;;;;;;;19.75;17.40;;;;;;;0.52;100.00;97195.75;5017306;28;24996;-76
2022/03/21 05:32:45;;;;;;;18.48;16.58;;;;;;;0.19;100.00;97196.59;5044885;28;24446;-76
2022/03/21 05:37:57;;;;;;;20.77;17.52;;;;;;;0.12;100.00;97199.97;5037379;28;24396;-76
2022/03/21 05:40:34;;;;;;;24.83;17.77;;;;;;;0.23;100.00;97201.69;5035224;28;24782;-76
2022/03/21 05:43:00;;;;;;;18.00;15.67;;;;;;;0.37;100.00;97200.81;5037790;28;24531;-77
2022/03/21 05:45:28;;;;;;;20.92;16.70;;;;;;;0.53;100.00;97212.72;5036861;28;24440;-77
2022/03/21 05:50:41;;;;;;;17.52;15.82;;;;;;;0.69;100.00;97209.31;5037383;28;24503;-77
2022/03/21 05:53:09;;;;;;;27.08;16.95;;;;;;;0.71;100.00;97212.72;5037414;28;24432;-76
2022/03/21 05:55:36;;;;;;;18.00;15.52;;;;;;;0.75;100.00;97213.56;5037206;28;24969;-76
2022/03/21 05:58:02;;;;;;;20.45;16.55;;;;;;;0.83;100.00;97221.22;5035507;28;24438;-76
2022/03/21 06:00:29;;;;;;;17.90;15.55;;;;;;;0.93;100.00;97211.00;5032035;28;24432;-75
2022/03/21 06:02:55;;;;;;;17.70;15.88;;;;;;;1.02;100.00;97214.38;5031689;28;24424;-76
2022/03/21 06:05:23;;;;;;;17.73;15.02;;;;;;;1.18;100.00;97221.13;5031932;28;24498;-76
2022/03/21 06:07:51;;;;;;;16.67;14.95;;;;;;;1.21;100.00;97227.06;5032222;28;24481;-76
2022/03/21 06:10:18;;;;;;;17.33;15.32;;;;;;;1.21;100.00;97224.53;5031625;28;24974;-73
2022/03/21 06:12:45;;;;;;;20.17;14.90;;;;;;;1.27;100.00;97223.66;5031586;28;24424;-71
2022/03/21 06:15:12;;;;;;;17.40;14.98;;;;;;;1.30;100.00;97230.44;5031476;28;24424;-74
2022/03/21 06:17:39;;;;;;;17.05;15.10;;;;;;;1.32;100.00;97232.16;5031411;28;24527;-74
2022/03/21 06:20:08;;;;;;;19.40;14.90;;;;;;;1.45;100.00;97225.31;5032971;28;24423;-77
2022/03/21 06:22:35;;;;;;;16.42;14.38;;;;;;;1.49;100.00;97232.09;5031844;28;24435;-78
2022/03/21 06:25:03;;;;;;;20.63;16.33;;;;;;;1.30;100.00;97238.09;5032984;28;24428;-78
2022/03/21 06:27:30;;;;;;;18.73;16.73;;;;;;;1.09;100.00;97244.97;5031894;28;25015;-76
2022/03/21 06:29:56;;;;;;;20.67;16.33;;;;;;;1.11;100.00;97244.97;5030454;28;24424;-77
2022/03/21 06:32:24;;;;;;;19.65;16.75;;;;;;;1.13;100.00;97239.00;5030606;28;24431;-78
2022/03/21 06:34:52;;;;;;;20.90;17.40;;;;;;;1.16;100.00;97250.91;5030877;28;24498;-77
2022/03/21 06:37:18;;;;;;;20.27;17.63;;;;;;;1.25;100.00;97250.88;5029433;28;24995;-78
2022/03/21 06:39:44;;;;;;;19.55;17.50;;;;;;;1.41;100.00;97251.72;5030339;28;24439;-77
2022/03/21 06:42:14;;;;;;;23.52;16.52;;;;;;;1.63;100.00;97255.00;5037096;28;24416;-78
2022/03/21 06:44:41;;;;;;;19.02;16.20;;;;;;;1.85;100.00;97259.16;5033924;28;24458;-78
2022/03/21 06:47:08;;;;;;;21.37;17.67;;;;;;;2.03;100.00;97254.84;5040287;28;24560;-78
2022/03/21 06:49:35;;;;;;;25.02;16.98;;;;;;;2.18;100.00;97260.69;5034675;28;24428;-78
2022/03/21 06:52:04;;;;;;;19.48;17.02;;;;;;;2.32;100.00;97254.66;5034194;28;24440;-77
2022/03/21 06:54:30;;;;;;;19.95;16.90;;;;;;;2.46;100.00;97268.22;5030923;28;25004;-77
2022/03/21 06:56:57;;;;;;;19.33;16.55;;;;;;;2.62;100.00;97264.66;5030876;28;24427;-78
2022/03/21 06:59:25;;;;;;;19.85;16.25;;;;;;;2.74;100.00;97262.88;5031405;28;24825;-79
2022/03/21 07:01:51;;;;;;;19.05;16.95;;;;;;;2.91;100.00;97267.00;5031483;28;24477;-76
2022/03/21 07:04:18;;;;;;;22.00;18.08;;;;;;;3.02;100.00;97268.63;5030979;28;24435;-78
2022/03/21 07:06:45;;;;;;;19.65;17.60;;;;;;;3.21;100.00;97275.25;5030736;28;24431;-77
2022/03/21 07:09:11;;;;;;;24.05;18.35;;;;;;;3.29;100.00;97267.50;5030528;28;24451;-77
2022/03/21 07:11:37;;;;;;;21.92;17.73;;;;;;;3.36;100.00;97267.41;5030942;28;24979;-78
2022/03/21 07:14:04;;;;;;;20.08;18.02;;;;;;;3.44;100.00;97271.63;5030721;28;24439;-77
2022/03/21 07:16:32;;;;;;;24.60;16.90;;;;;;;3.26;98.44;97267.53;5031168;28;24424;-76
2022/03/21 07:18:58;;;;;;;18.35;16.45;;;;;;;3.42;96.39;97274.19;5030887;28;24427;-77
2022/03/21 07:21:25;;;;;;;18.95;15.95;;;;;;;3.63;97.53;97270.53;5030604;28;24482;-76
2022/03/21 07:23:51;;;;;;;17.98;16.00;;;;;;;3.79;93.05;97266.94;5030750;28;24447;-77
2022/03/21 07:26:18;;;;;;;18.80;15.85;;;;;;;3.98;93.47;97269.28;5030616;28;24478;-76
2022/03/21 07:28:44;;;;;;;18.70;16.20;;;;;;;4.15;91.82;97277.59;5030764;28;24555;-77
2022/03/21 07:31:11;;;;;;;23.63;16.83;;;;;;;4.40;91.93;97280.66;5030748;28;24435;-78
2022/03/21 07:33:39;;;;;;;17.70;15.57;;;;;;;4.65;90.61;97270.91;5030865;28;24486;-76
2022/03/21 07:36:06;;;;;;;18.33;15.80;;;;;;;4.68;87.04;97273.41;5031798;28;24420;-81
2022/03/21 07:38:33;;;;;;;19.13;15.37;;;;;;;4.86;87.33;97280.00;5032561;28;24439;-75
2022/03/21 07:41:00;;;;;;;20.63;16.35;;;;;;;4.74;84.61;97272.47;5031768;28;24424;-79
2022/03/21 07:43:26;;;;;;;19.08;16.17;;;;;;;4.53;87.25;97268.53;5032346;28;24427;-77
2022/03/21 07:48:39;;;;;;;20.02;15.82;;;;;;;4.65;86.17;97272.63;5030744;28;24503;-75
2022/03/21 07:51:07;;;;;;;20.48;16.55;;;;;;;4.79;85.44;97278.38;5030004;28;24510;-76
2022/03/21 07:53:34;;;;;;;21.88;15.52;;;;;;;5.15;84.80;97269.22;5030087;28;24483;-75
2022/03/21 07:56:00;;;;;;;18.58;16.27;;;;;;;5.64;84.41;97270.91;5030076;28;24836;-77
2022/03/21 07:58:27;;;;;;;23.33;16.42;;;;;;;6.00;79.02;97271.06;5030372;28;24801;-75
2022/03/21 08:00:56;;;;;;;16.95;15.25;;;;;;;5.98;77.86;97270.25;5028343;28;24432;-76
2022/03/21 08:03:22;;;;;;;23.13;17.05;;;;;;;6.13;79.55;97276.81;5028787;28;24981;-77
2022/03/21 08:05:50;;;;;;;20.55;15.60;;;;;;;6.55;77.08;97270.69;5024149;28;24451;-77
2022/03/21 08:08:17;;;;;;;20.65;16.65;;;;;;;6.74;73.44;97268.53;5028558;28;24977;-77
2022/03/21 08:10:43;;;;;;;21.85;16.50;;;;;;;6.79;75.83;97274.44;5029287;28;24415;-76
2022/03/21 08:13:10;;;;;;;21.55;16.40;;;;;;;6.79;74.61;97269.28;5030213;28;24432;-76
2022/03/21 08:15:37;;;;;;;24.10;17.00;;;;;;;7.08;73.26;97277.19;5030019;28;24937;-76
2022/03/21 08:18:04;;;;;;;19.08;17.05;;;;;;;7.16;73.28;97275.28;5030381;28;20769;-76
2022/03/21 08:20:34;;;;;;;22.45;17.92;;;;;;;7.10;74.16;97280.59;5027952;28;24447;-77
2022/03/21 08:23:03;;;;;;;21.00;16.35;;;;;;;7.23;73.16;97287.97;5013781;28;24520;-77
2022/03/21 08:25:30;;;;;;;22.08;16.80;;;;;;;7.14;74.44;97280.47;5030035;28;20772;-77
2022/03/21 08:27:56;;;;;;;19.52;16.70;;;;;;;7.33;73.82;97283.41;5025097;28;24456;-76
2022/03/21 08:30:23;;;;;;;20.55;17.08;;;;;;;7.52;73.23;97282.03;5032952;28;24485;-76
2022/03/21 08:32:50;;;;;;;21.08;16.27;;;;;;;7.62;72.83;97285.22;5027812;28;24432;-76
2022/03/21 08:35:18;;;;;;;20.02;15.70;;;;;;;7.62;71.97;97280.06;5024110;28;20784;-76
2022/03/21 08:37:44;;;;;;;16.42;14.68;;;;;;;8.04;74.12;97282.34;5013663;28;20800;-76
2022/03/21 08:40:14;;;;;;;19.42;15.85;;;;;;;8.12;69.81;97280.41;5013187;28;24968;-76
2022/03/21 08:42:40;;;;;;;19.63;16.02;;;;;;;8.12;70.30;97274.38;5029324;28;20814;-75
2022/03/21 08:45:09;;;;;;;20.75;15.25;;;;;;;8.66;70.73;97281.41;5023368;28;24424;-76
2022/03/21 08:47:37;;;;;;;20.35;15.18;;;;;;;8.98;68.53;97275.22;5037799;28;20810;-76
2022/03/21 08:50:04;;;;;;;16.80;14.60;;;;;;;9.51;67.37;97279.50;5044092;28;21152;-76
2022/03/21 08:52:31;;;;;;;20.20;15.98;;;;;;;9.20;64.21;97283.13;5035717;28;20776;-75
2022/03/21 08:54:57;;;;;;;20.98;15.60;;;;;;;9.31;64.63;97278.44;5034024;28;20777;-75
2022/03/21 08:57:25;;;;;;;18.73;14.95;;;;;;;9.63;63.52;97277.31;5033184;28;20791;-75
2022/03/21 08:59:52;;;;;;;18.60;15.27;;;;;;;9.91;64.57;97271.19;5032653;28;24806;-78
2022/03/21 09:02:19;;;;;;;20.50;15.40;;;;;;;9.79;62.03;97277.66;5032725;28;20862;-77
2022/03/21 09:04:47;;;;;;;18.47;15.83;;;;;;;10.04;62.38;97269.81;5031799;28;24424;-76
2022/03/21 09:07:14;;;;;;;16.50;14.70;;;;;;;10.35;60.47;97268.72;5032703;28;24857;-76
2022/03/21 09:09:40;;;;;;;16.50;14.90;;;;;;;10.55;59.81;97268.78;5024216;28;20875;-77
2022/03/21 09:12:08;;;;;;;16.97;14.37;;;;;;;11.00;58.60;97272.22;5032631;28;24478;-76
2022/03/21 09:14:36;;;;;;;18.67;15.05;;;;;;;11.09;56.68;97267.50;5032718;28;24507;-76
2022/03/21 09:17:04;;;;;;;17.75;14.82;;;;;;;11.33;55.83;97267.38;5032231;28;24844;-76
2022/03/21 09:19:30;;;;;;;21.50;15.60;;;;;;;11.03;55.01;97266.91;5031700;28;24455;-76
2022/03/21 09:21:59;;;;;;;23.65;15.80;;;;;;;10.94;56.48;97272.44;5032285;28;24968;-75
2022/03/21 09:24:26;;;;;;;20.85;15.15;;;;;;;10.75;53.66;97267.16;5032156;28;24872;-76
2022/03/21 09:26:53;;;;;;;17.83;15.40;;;;;;;10.84;56.36;97270.25;5031995;28;24983;-75
2022/03/21 09:29:20;;;;;;;18.13;14.32;;;;;;;10.93;55.49;97261.25;5031800;28;24448;-75
2022/03/21 09:31:48;;;;;;;19.02;14.43;;;;;;;11.27;55.13;97267.63;5031073;28;24412;-76
2022/03/21 09:34:16;;;;;;;17.77;14.65;;;;;;;11.60;53.03;97260.19;5031930;28;24428;-75
2022/03/21 09:36:44;;;;;;;19.40;14.20;;;;;;;12.14;52.41;97260.44;5031998;28;24515;-74
2022/03/21 09:39:12;;;;;;;15.13;13.05;;;;;;;12.33;52.31;97258.69;5031798;28;24424;-76
2022/03/21 09:41:39;;;;;;;18.00;13.73;;;;;;;12.77;51.67;97256.59;5031925;28;24523;-75
2022/03/21 09:44:09;;;;;;;18.67;13.27;;;;;;;13.22;50.55;97250.06;5031939;28;25022;-74
2022/03/21 09:46:36;;;;;;;16.52;14.00;;;;;;;13.27;48.72;97252.47;5032032;28;24419;-72
2022/03/21 09:49:06;;;;;;;17.40;12.73;;;;;;;13.46;52.06;97253.25;5031440;28;24854;-75
2022/03/21 09:51:33;;;;;;;20.83;12.00;;;;;;;13.68;49.30;97247.81;5031889;28;24431;-75
2022/03/21 09:54:01;;;;;;;16.92;11.82;;;;;;;14.16;48.50;97240.91;5031362;28;24451;-74
2022/03/21 09:56:29;;;;;;;15.68;12.43;;;;;;;14.13;47.80;97245.47;5031808;28;24423;-75
2022/03/21 09:58:59;;;;;;;20.45;12.38;;;;;;;14.42;51.74;97241.25;5031587;28;24415;-75
2022/03/21 10:01:26;;;;;;;16.70;12.52;;;;;;;14.51;46.63;97243.41;5031786;28;24465;-74
2022/03/21 10:03:53;;;;;;;17.33;12.23;;;;;;;14.30;45.96;97240.16;5031594;28;24477;-74
2022/03/21 10:06:29;;;;;;;17.73;11.75;;;;;;;14.72;51.70;97239.63;5031436;28;24443;-74
2022/03/21 10:09:07;;;;;;;15.98;11.68;;;;;;;14.67;46.38;97243.38;5031056;28;24443;-74
2022/03/21 10:11:34;;;;;;;13.57;10.73;;;;;;;14.91;48.16;97236.81;5031613;28;24423;-76
2022/03/21 10:14:20;;;;;;;15.10;9.40;;;;;;;14.81;47.34;97232.19;5031202;28;24976;-74
2022/03/21 10:16:50;;;;;;;10.48;8.38;;;;;;;14.83;50.47;97232.94;5031350;28;24415;-74
2022/03/21 10:19:17;;;;;;;12.73;7.47;;;;;;;14.93;48.96;97236.72;5031254;28;24499;-74
2022/03/21 10:22:01;;;;;;;12.00;7.18;;;;;;;14.26;45.38;97229.06;5031440;28;24428;-75
2022/03/21 10:24:27;;;;;;;13.00;6.85;;;;;;;13.83;46.36;97233.13;5030950;28;25027;-74
2022/03/21 10:26:55;;;;;;;8.95;7.35;;;;;;;14.17;50.41;97231.34;5031516;28;24940;-76
2022/03/21 10:29:22;;;;;;;10.57;7.87;;;;;;;13.99;47.17;97228.78;5030935;28;24436;-76
2022/03/21 10:31:51;;;;;;;11.95;8.02;;;;;;;14.56;47.56;97236.16;5031022;28;24462;-76
2022/03/21 10:34:20;;;;;;;11.48;8.27;;;;;;;14.32;47.66;97227.91;5031099;28;24542;-76
2022/03/21 10:37:02;;;;;;;10.98;8.13;;;;;;;14.61;50.83;97228.06;5021832;28;24436;-75
2022/03/21 10:39:29;;;;;;;11.95;7.70;;;;;;;14.58;49.41;97223.06;5028621;28;24816;-76
2022/03/21 10:41:58;;;;;;;13.77;8.32;;;;;;;15.12;45.90;97226.06;5030729;28;24428;-75
2022/03/21 10:44:25;;;;;;;12.77;7.05;;;;;;;15.38;46.99;97224.53;5021952;28;24539;-76
2022/03/21 10:46:53;;;;;;;8.53;6.83;;;;;;;15.45;44.75;97224.09;5030898;28;24505;-75
2022/03/21 10:49:29;;;;;;;11.15;6.60;;;;;;;15.34;45.68;97221.25;5030525;28;24482;-75
2022/03/21 10:51:56;;;;;;;9.10;6.68;;;;;;;15.34;44.83;97226.47;5030823;28;24451;-75
2022/03/21 10:54:48;;;;;;;9.98;7.07;;;;;;;15.31;47.00;97221.44;5030324;28;25046;-75
2022/03/21 10:57:31;;;;;;;12.38;7.65;;;;;;;15.29;45.50;97225.09;5018781;28;24525;-74
2022/03/21 11:00:14;;;;;;;11.13;7.72;;;;;;;15.07;45.54;97221.13;5030362;28;24423;-75
2022/03/21 11:02:53;;;;;;;13.13;7.53;;;;;;;15.15;50.49;97220.66;5030529;28;24508;-74
2022/03/21 11:05:20;;;;;;;11.27;8.55;;;;;;;15.09;42.84;97221.00;5030666;28;24424;-74
2022/03/21 11:07:47;;;;;;;10.15;7.88;;;;;;;15.28;47.03;97218.16;5030608;28;24443;-75
2022/03/21 11:10:16;;;;;;;12.13;8.55;;;;;;;15.22;42.34;97220.22;5030243;28;24448;-74
2022/03/21 11:12:45;;;;;;;10.67;8.00;;;;;;;15.29;46.25;97212.03;5030540;28;24602;-75
2022/03/21 11:15:12;;;;;;;12.60;9.55;;;;;;;14.79;40.81;97216.63;5030218;28;24431;-75
2022/03/21 11:17:38;;;;;;;12.40;9.05;;;;;;;15.06;44.62;97211.59;5030203;28;24467;-75
2022/03/21 11:20:06;;;;;;;12.55;9.25;;;;;;;15.11;47.02;97206.94;5030038;28;25105;-74
2022/03/21 11:22:34;;;;;;;13.02;9.75;;;;;;;15.05;44.93;97211.69;5022072;28;24424;-74
2022/03/21 11:25:03;;;;;;;16.50;10.40;;;;;;;14.85;46.36;97199.78;5030158;28;24968;-70
2022/03/21 11:27:48;;;;;;;12.38;9.85;;;;;;;15.08;43.33;97194.06;5030089;28;24428;-74
2022/03/21 11:30:23;;;;;;;13.93;10.32;;;;;;;14.88;44.72;97200.47;5029995;28;25012;-74
2022/03/21 11:32:59;;;;;;;14.70;10.10;;;;;;;14.69;46.10;97200.66;5030337;28;24969;-75
2022/03/21 11:35:28;;;;;;;17.98;10.65;;;;;;;14.73;42.37;97194.34;5030287;28;24424;-74
2022/03/21 11:37:55;;;;;;;13.95;10.25;;;;;;;14.71;44.17;97195.34;5030133;28;24953;-74
2022/03/21 11:40:31;;;;;;;14.10;10.75;;;;;;;15.20;46.86;97189.91;5029798;28;24420;-75
2022/03/21 11:43:29;;;;;;;13.80;10.43;;;;;;;15.33;45.24;97190.03;5030149;28;24467;-73
2022/03/21 11:45:57;;;;;;;15.10;10.98;;;;;;;14.81;44.62;97195.69;5029889;28;24897;-75
2022/03/21 11:48:36;;;;;;;17.95;11.90;;;;;;;14.94;43.94;97199.25;5030016;28;24423;-74